Time;durP1;ratioP1;P1;durP2;ratioP2;P2;SDS_P1;SDS_P2;PMS_P1;PMS_P2;Temp;Humidity;BMP_temperature;BMP_pressure;BME280_temperature;BME280_humidity;BME280_pressure;Samples;Min_cycle;Max_cycle;Signal;HPM_P1;HPM_P2
2021/06/13 00:01:48;;;;;;;;;5.50;5.50;;;;;22.14;47.65;102182.56;5041042;28;45427;-75
2021/06/13 00:04:14;;;;;;;;;5.75;4.75;;;;;22.21;47.90;102187.09;5059111;28;45476;-75
2021/06/13 00:06:40;;;;;;;;;6.00;4.50;;;;;22.18;48.39;102187.06;5058955;28;46077;-75
2021/06/13 00:09:06;;;;;;;;;5.50;5.50;;;;;22.16;47.93;102183.50;5059632;28;45324;-75
2021/06/13 00:11:32;;;;;;;;;6.50;6.00;;;;;22.16;48.65;102190.50;5059588;28;45774;-75
2021/06/13 00:13:58;;;;;;;;;7.25;5.25;;;;;22.19;48.25;102177.38;5059394;28;45272;-75
2021/06/13 00:16:23;;;;;;;;;7.75;6.75;;;;;22.11;48.83;102185.16;5059927;28;45357;-75
2021/06/13 00:18:49;;;;;;;;;6.00;6.00;;;;;22.09;48.48;102178.94;5059398;28;45309;-76
2021/06/13 00:21:15;;;;;;;;;5.50;5.50;;;;;22.11;48.92;102174.59;5058688;28;45336;-76
2021/06/13 00:23:43;;;;;;;;;6.00;4.50;;;;;22.08;48.73;102178.06;5059852;28;45252;-76
2021/06/13 00:26:09;;;;;;;;;4.75;4.75;;;;;22.05;48.68;102179.75;5060254;28;45415;-74
2021/06/13 00:28:35;;;;;;;;;6.00;6.00;;;;;21.99;48.67;102164.72;5060766;28;45307;-74
2021/06/13 00:31:02;;;;;;;;;3.50;3.50;;;;;21.98;48.65;102160.28;5061199;28;45332;-75
2021/06/13 00:33:28;;;;;;;;;6.75;6.75;;;;;22.04;49.13;102159.53;5061115;28;45341;-75
2021/06/13 00:35:53;;;;;;;;;9.00;6.00;;;;;22.01;49.21;102160.38;5060119;28;46372;-75
2021/06/13 00:38:19;;;;;;;;;6.00;5.50;;;;;21.95;49.10;102163.78;5058377;28;45337;-74
2021/06/13 00:40:45;;;;;;;;;4.75;4.75;;;;;21.95;49.17;102171.69;5058565;28;45395;-76
2021/06/13 00:43:10;;;;;;;;;6.25;4.25;;;;;21.96;49.20;102169.91;5058611;28;45360;-76
2021/06/13 00:45:36;;;;;;;;;7.00;5.75;;;;;21.98;49.54;102172.56;5040586;28;46872;-75
2021/06/13 00:48:02;;;;;;;;;6.50;5.25;;;;;21.91;49.15;102168.97;5058602;28;45401;-74
2021/06/13 00:50:41;;;;;;;;;4.25;4.25;;;;;21.87;49.79;102161.84;5058183;28;45426;-74
2021/06/13 00:53:09;;;;;;;;;5.25;5.25;;;;;21.83;49.45;102176.72;5058350;28;45331;-74
2021/06/13 00:55:36;;;;;;;;;5.25;5.00;;;;;21.82;49.09;102167.03;5058195;28;45296;-74
2021/06/13 00:58:03;;;;;;;;;7.00;6.00;;;;;21.78;49.99;102171.34;5057366;28;45336;-74
2021/06/13 01:00:28;;;;;;;;;8.00;8.00;;;;;21.77;49.57;102168.66;5058052;28;45474;-75
2021/06/13 01:02:56;;;;;;;;;6.00;6.00;;;;;21.74;49.69;102169.50;5058480;28;45261;-75
2021/06/13 01:05:23;;;;;;;;;6.00;6.00;;;;;21.79;49.48;102173.13;5039639;28;45532;-74
2021/06/13 01:08:17;;;;;;;;;7.00;7.00;;;;;21.77;49.15;102164.28;5057841;28;45331;-75
2021/06/13 01:10:52;;;;;;;;;5.00;5.00;;;;;21.72;49.48;102170.34;5058090;28;45330;-75
2021/06/13 01:13:25;;;;;;;;;4.75;4.25;;;;;21.74;49.48;102171.25;5057978;28;45358;-75
2021/06/13 01:16:21;;;;;;;;;8.00;6.00;;;;;21.70;49.69;102166.75;5057561;28;46053;-74
2021/06/13 01:18:57;;;;;;;;;9.00;6.00;;;;;21.71;49.05;102169.44;5057706;28;45461;-74
2021/06/13 01:21:28;;;;;;;;;6.75;6.75;;;;;21.71;49.63;102168.56;5057670;28;45399;-75
2021/06/13 01:24:15;;;;;;;;;5.00;5.00;;;;;21.72;49.22;102170.34;5058051;28;45463;-75
2021/06/13 01:26:59;;;;;;;;;6.00;6.00;;;;;21.73;49.31;102173.00;5057605;28;45337;-75
2021/06/13 01:29:55;;;;;;;;;6.75;6.75;;;;;21.74;48.76;102168.63;5057393;28;45801;-74
2021/06/13 01:32:25;;;;;;;;;6.00;5.00;;;;;21.72;48.58;102170.34;5044687;28;45479;-75
2021/06/13 01:34:55;;;;;;;;;7.75;6.75;;;;;21.74;49.22;102179.16;5057783;28;45621;-75
2021/06/13 01:37:24;;;;;;;;;6.00;5.50;;;;;21.67;48.95;102177.25;5056914;28;45475;-74
2021/06/13 01:39:56;;;;;;;;;6.00;6.00;;;;;21.67;49.19;102180.78;5057243;28;45332;-75
2021/06/13 01:42:22;;;;;;;;;5.75;5.75;;;;;21.68;48.94;102179.03;5057445;28;45312;-74
2021/06/13 01:44:50;;;;;;;;;8.75;6.75;;;;;21.70;49.18;102177.31;5057803;28;45438;-74
2021/06/13 01:47:17;;;;;;;;;7.75;5.75;;;;;21.64;48.94;102172.81;5056824;28;45342;-74
2021/06/13 01:49:43;;;;;;;;;6.50;6.50;;;;;21.69;48.61;102176.44;5057181;28;45871;-75
2021/06/13 01:52:11;;;;;;;;;7.25;7.25;;;;;21.70;48.38;102187.84;5057076;28;45293;-74
2021/06/13 01:54:38;;;;;;;;;5.00;5.00;;;;;21.67;48.45;102183.41;5057432;28;45352;-75
2021/06/13 01:57:05;;;;;;;;;8.75;6.75;;;;;21.71;48.56;102184.38;5057181;28;46316;-74
2021/06/13 01:59:31;;;;;;;;;5.00;5.00;;;;;21.71;48.58;102187.88;5056729;28;45422;-74
2021/06/13 02:01:58;;;;;;;;;8.50;6.00;;;;;21.72;48.64;102188.78;5057187;28;45812;-75
2021/06/13 02:04:26;;;;;;;;;6.00;5.00;;;;;21.74;48.48;102193.22;5039020;28;45312;-74
2021/06/13 02:06:57;;;;;;;;;8.00;6.25;;;;;21.63;48.49;102184.19;5056791;28;45353;-74
2021/06/13 02:09:24;;;;;;;;;8.75;5.00;;;;;21.68;48.80;102200.09;5056520;28;45343;-74
2021/06/13 02:11:51;;;;;;;;;8.00;6.50;;;;;21.65;48.83;102204.44;5056966;28;45375;-75
2021/06/13 02:14:25;;;;;;;;;7.25;6.25;;;;;21.63;48.43;102194.75;5056696;28;45359;-75
2021/06/13 02:16:52;;;;;;;;;6.50;5.50;;;;;21.65;48.62;102207.09;5056818;28;46041;-75
2021/06/13 02:19:23;;;;;;;;;8.00;8.00;;;;;21.63;48.70;102203.56;5056431;28;45944;-74
2021/06/13 02:21:55;;;;;;;;;9.00;7.50;;;;;21.62;48.90;102203.50;5056774;28;45400;-74
2021/06/13 02:24:22;;;;;;;;;5.75;5.75;;;;;21.62;48.96;102207.03;5056840;28;45293;-75
2021/06/13 02:26:48;;;;;;;;;6.00;6.00;;;;;21.54;48.85;102197.16;5056471;28;45518;-74
2021/06/13 02:29:14;;;;;;;;;6.75;6.00;;;;;21.47;48.97;102199.66;5056427;28;45326;-75
2021/06/13 02:31:43;;;;;;;;;8.00;6.00;;;;;21.46;48.87;102204.88;5056782;28;45327;-74
2021/06/13 02:34:09;;;;;;;;;4.50;4.50;;;;;21.42;48.98;102205.69;5038694;28;45239;-74
2021/06/13 02:36:37;;;;;;;;;6.00;5.00;;;;;21.39;49.20;102202.97;5056886;28;45934;-75
2021/06/13 02:39:06;;;;;;;;;6.00;6.00;;;;;21.31;49.16;102208.06;5056802;28;45876;-74
2021/06/13 02:41:33;;;;;;;;;9.75;8.75;;;;;21.31;49.59;102210.72;5056790;28;45284;-75
2021/06/13 02:44:00;;;;;;;;;8.25;7.25;;;;;21.34;49.63;102213.41;5056947;28;45392;-74
2021/06/13 02:46:25;;;;;;;;;7.00;7.00;;;;;21.28;49.58;102213.25;5056194;28;45382;-74
2021/06/13 02:48:52;;;;;;;;;10.25;8.00;;;;;21.30;49.22;102224.72;5056330;28;45313;-74
2021/06/13 02:51:21;;;;;;;;;7.00;7.00;;;;;21.22;49.20;102214.00;5038262;28;45424;-74
2021/06/13 02:53:54;;;;;;;;;6.50;6.00;;;;;21.19;49.72;102213.97;5056555;28;45457;-74
2021/06/13 02:56:31;;;;;;;;;7.00;7.00;;;;;21.16;49.74;102214.78;5038710;28;45478;-74
2021/06/13 02:59:38;;;;;;;;;6.75;6.75;;;;;21.11;49.94;102223.44;5056204;28;45741;-74
2021/06/13 03:02:08;;;;;;;;;10.00;7.75;;;;;21.09;50.28;102228.63;5056694;28;45368;-74
2021/06/13 03:04:36;;;;;;;;;6.50;6.50;;;;;21.07;49.96;102229.47;5039197;28;45437;-74
2021/06/13 03:07:03;;;;;;;;;8.25;7.75;;;;;21.01;50.43;102223.19;5056396;28;46244;-74
2021/06/13 03:09:32;;;;;;;;;6.50;6.50;;;;;21.07;50.28;102240.00;5037787;28;45306;-74
2021/06/13 03:11:58;;;;;;;;;7.00;7.00;;;;;21.02;49.99;102243.41;5056189;28;45367;-75
2021/06/13 03:14:27;;;;;;;;;7.25;6.25;;;;;21.02;49.77;102246.03;5056065;28;45375;-75
2021/06/13 03:16:54;;;;;;;;;7.00;7.00;;;;;20.99;50.25;102253.88;5037686;28;46310;-76
2021/06/13 03:19:20;;;;;;;;;12.75;8.25;;;;;21.00;50.42;102254.75;5055597;28;45808;-75
2021/06/13 03:21:48;;;;;;;;;9.00;7.25;;;;;20.98;50.40;102249.47;5055690;28;45331;-75
2021/06/13 03:24:16;;;;;;;;;9.00;6.25;;;;;21.00;50.20;102254.75;5055953;28;45477;-75
2021/06/13 03:26:43;;;;;;;;;9.00;8.25;;;;;21.02;49.84;102263.59;5055724;28;46550;-75
2021/06/13 03:29:10;;;;;;;;;8.00;8.00;;;;;20.96;50.27;102261.69;5055552;28;45684;-75
2021/06/13 03:31:36;;;;;;;;;7.50;6.50;;;;;20.98;50.09;102262.63;5056212;28;45379;-75
2021/06/13 03:34:03;;;;;;;;;9.25;8.25;;;;;20.98;49.96;102267.91;5056432;28;45414;-75
2021/06/13 03:36:30;;;;;;;;;9.50;7.00;;;;;20.95;50.05;102267.81;5055369;28;45444;-75
2021/06/13 03:38:57;;;;;;;;;10.00;8.00;;;;;20.88;50.14;102263.25;5055577;28;45689;-75
2021/06/13 03:41:24;;;;;;;;;9.25;9.25;;;;;20.88;50.06;102264.13;5055582;28;45405;-75
2021/06/13 03:43:52;;;;;;;;;10.25;9.25;;;;;20.88;50.26;102258.88;5055951;28;45348;-75
2021/06/13 03:46:18;;;;;;;;;9.50;6.25;;;;;20.87;50.73;102267.59;5037251;28;47919;-75
2021/06/13 03:48:44;;;;;;;;;12.50;10.50;;;;;20.85;50.75;102260.53;5055572;28;45370;-75
2021/06/13 03:51:12;;;;;;;;;13.25;12.25;;;;;20.84;50.56;102256.13;5055429;28;45269;-75
2021/06/13 03:53:46;;;;;;;;;9.75;9.00;;;;;20.80;50.52;102262.13;5055831;28;45288;-75
2021/06/13 03:56:19;;;;;;;;;9.75;9.00;;;;;20.72;50.67;102265.44;5055046;28;46476;-75
2021/06/13 03:58:47;;;;;;;;;7.75;7.75;;;;;20.71;51.26;102268.91;5055402;28;45454;-75
2021/06/13 04:01:15;;;;;;;;;10.25;8.75;;;;;20.72;51.01;102272.47;5037212;28;45345;-75
2021/06/13 04:03:42;;;;;;;;;9.75;8.75;;;;;20.71;50.98;102265.41;5055763;28;45332;-75
2021/06/13 04:06:09;;;;;;;;;9.00;8.25;;;;;20.74;50.46;102276.03;5055132;28;46229;-75
2021/06/13 04:08:37;;;;;;;;;7.25;7.25;;;;;20.72;50.83;102267.19;5055506;28;45376;-75
2021/06/13 04:11:04;;;;;;;;;10.50;9.50;;;;;20.71;50.83;102283.84;5055756;28;45367;-75
2021/06/13 04:13:32;;;;;;;;;8.00;7.25;;;;;20.63;51.26;102283.63;5055400;28;45228;-75
2021/06/13 04:15:59;;;;;;;;;11.50;10.00;;;;;20.60;50.73;102288.78;5055140;28;45379;-75
2021/06/13 04:18:26;;;;;;;;;10.25;8.25;;;;;20.57;51.10;102280.84;5054868;28;45394;-74
2021/06/13 04:20:52;;;;;;;;;12.00;10.50;;;;;20.57;51.25;102294.00;5054203;28;45965;-75
2021/06/13 04:23:17;;;;;;;;;9.00;7.75;;;;;20.56;51.20;102295.72;5055295;28;45382;-74
2021/06/13 04:25:44;;;;;;;;;9.25;9.00;;;;;20.55;51.41;102287.81;5054948;28;45442;-74
2021/06/13 04:28:16;;;;;;;;;12.00;9.25;;;;;20.57;51.39;102300.13;5054889;28;45896;-76
2021/06/13 04:31:13;;;;;;;;;8.00;8.00;;;;;20.60;50.74;102306.34;5055363;28;45279;-74
2021/06/13 04:33:43;;;;;;;;;13.25;11.75;;;;;20.62;50.70;102300.25;5038563;28;45543;-74
2021/06/13 04:36:09;;;;;;;;;12.00;9.00;;;;;20.62;51.09;102302.91;5057943;28;45360;-73
2021/06/13 04:38:36;;;;;;;;;13.25;10.50;;;;;20.63;50.86;102307.31;5058604;28;45320;-74
2021/06/13 04:41:03;;;;;;;;;7.00;7.00;;;;;20.66;50.98;102298.59;5040643;28;45749;-74
2021/06/13 04:43:28;;;;;;;;;8.00;8.00;;;;;20.71;50.92;102302.25;5058518;28;45225;-74
2021/06/13 04:45:54;;;;;;;;;11.50;11.50;;;;;20.80;50.98;102309.53;5058229;28;46187;-74
2021/06/13 04:48:20;;;;;;;;;11.50;8.75;;;;;20.79;50.82;102310.38;5057822;28;45264;-77
2021/06/13 04:50:46;;;;;;;;;13.50;9.75;;;;;20.80;50.55;102304.25;5058240;28;45344;-73
2021/06/13 04:53:47;;;;;;;;;9.25;7.00;;;;;20.82;50.41;102318.34;5058352;28;45370;-73
2021/06/13 04:56:16;;;;;;;;;8.50;8.00;;;;;20.82;50.59;102315.72;5057617;28;45559;-73
2021/06/13 04:58:42;;;;;;;;;11.25;9.25;;;;;20.76;50.08;102311.19;5057988;28;45508;-74
2021/06/13 05:01:08;;;;;;;;;10.75;10.50;;;;;20.81;50.44;102321.84;5057836;28;45421;-73
2021/06/13 05:03:34;;;;;;;;;9.50;8.50;;;;;20.78;50.73;102319.16;5058510;28;45558;-74
2021/06/13 05:06:00;;;;;;;;;13.75;11.50;;;;;20.79;50.86;102313.91;5057885;28;45598;-74
2021/06/13 05:08:25;;;;;;;;;12.75;9.50;;;;;20.77;50.75;102306.81;5056265;28;45392;-74
2021/06/13 05:10:51;;;;;;;;;9.00;8.75;;;;;20.81;50.72;102313.94;5057785;28;45277;-74
2021/06/13 05:13:18;;;;;;;;;11.00;9.00;;;;;20.83;50.44;102312.25;5057946;28;45874;-74
2021/06/13 05:15:44;;;;;;;;;11.75;10.75;;;;;20.84;49.45;102328.06;5057478;28;45445;-74
2021/06/13 05:18:10;;;;;;;;;14.00;9.25;;;;;20.84;50.14;102320.16;5057289;28;45463;-74
2021/06/13 05:20:37;;;;;;;;;12.50;11.00;;;;;20.85;49.58;102319.31;5057723;28;45301;-76
2021/06/13 05:23:05;;;;;;;;;12.00;10.00;;;;;20.84;50.20;102330.69;5058280;28;45461;-73
2021/06/13 05:25:35;;;;;;;;;9.75;8.50;;;;;20.85;49.41;102334.25;5057515;28;45500;-73
2021/06/13 05:28:03;;;;;;;;;8.00;8.00;;;;;20.84;49.45;102327.19;5057512;28;45752;-74
2021/06/13 05:30:30;;;;;;;;;10.00;9.25;;;;;20.88;49.96;102340.47;5057499;28;45335;-75
2021/06/13 05:32:56;;;;;;;;;14.25;9.75;;;;;20.92;48.89;102338.81;5057692;28;45456;-73
2021/06/13 05:35:22;;;;;;;;;9.00;9.00;;;;;20.97;48.94;102331.94;5057140;28;45901;-74
2021/06/13 05:37:49;;;;;;;;;13.00;9.25;;;;;21.01;48.92;102328.50;5057448;28;45877;-75
2021/06/13 05:40:15;;;;;;;;;9.75;9.75;;;;;21.03;48.82;102332.09;5056954;28;45331;-74
2021/06/13 05:42:41;;;;;;;;;7.50;7.25;;;;;21.03;48.18;102326.81;5057508;28;45170;-75
2021/06/13 05:45:09;;;;;;;;;9.75;9.75;;;;;21.07;48.20;102329.53;5056557;28;45272;-75
2021/06/13 05:47:36;;;;;;;;;11.00;9.75;;;;;21.11;48.12;102336.69;5057505;28;45444;-74
2021/06/13 05:50:04;;;;;;;;;9.25;8.00;;;;;21.10;48.43;102337.53;5056362;28;45608;-74
2021/06/13 05:52:29;;;;;;;;;10.25;10.00;;;;;21.10;47.45;102341.03;5057429;28;45513;-75
2021/06/13 05:54:58;;;;;;;;;11.25;9.00;;;;;21.08;48.14;102337.47;5039786;28;45296;-75
2021/06/13 05:57:33;;;;;;;;;9.00;7.75;;;;;21.12;48.09;102336.69;5057879;28;45348;-75
2021/06/13 06:00:01;;;;;;;;;7.00;7.00;;;;;21.08;48.00;102336.59;5061296;28;45437;-76
2021/06/13 06:02:27;;;;;;;;;9.00;8.00;;;;;21.10;47.30;102343.66;5059144;28;46065;-76
2021/06/13 06:04:52;;;;;;;;;9.75;8.75;;;;;21.19;47.29;102343.91;5058820;28;45278;-75
2021/06/13 06:07:18;;;;;;;;;8.75;6.00;;;;;21.23;47.21;102338.72;5062898;28;45357;-75
2021/06/13 06:09:44;;;;;;;;;11.00;8.00;;;;;21.26;46.61;102344.94;5061007;28;45370;-76
2021/06/13 06:12:11;;;;;;;;;9.00;9.00;;;;;21.37;46.50;102346.94;5059388;28;45665;-76
2021/06/13 06:14:37;;;;;;;;;9.25;9.00;;;;;21.42;45.95;102345.34;5057783;28;46738;-76
2021/06/13 06:17:03;;;;;;;;;8.50;8.00;;;;;21.45;46.31;102346.31;5057500;28;45289;-76
2021/06/13 06:19:28;;;;;;;;;8.00;6.50;;;;;21.44;45.93;102347.16;5056579;28;45515;-75
2021/06/13 06:21:54;;;;;;;;;12.00;9.75;;;;;21.49;45.39;102349.91;5039041;28;45567;-76
2021/06/13 06:24:20;;;;;;;;;8.25;6.75;;;;;21.49;45.37;102353.41;5056123;28;45549;-75
2021/06/13 06:26:45;;;;;;;;;9.50;8.50;;;;;21.49;44.90;102352.53;5056479;28;45413;-76
2021/06/13 06:29:11;;;;;;;;;8.00;8.00;;;;;21.50;44.88;102351.69;5056409;28;45352;-76
2021/06/13 06:31:37;;;;;;;;;9.50;9.00;;;;;21.49;45.42;102344.63;5039116;28;45435;-76
2021/06/13 06:34:02;;;;;;;;;11.00;7.75;;;;;21.55;45.08;102360.56;5056600;28;45340;-76
2021/06/13 06:36:28;;;;;;;;;9.00;9.00;;;;;21.56;44.58;102365.00;5056126;28;45288;-76
2021/06/13 06:38:53;;;;;;;;;9.75;9.00;;;;;21.58;44.93;102362.41;5056191;28;45376;-75
2021/06/13 06:41:19;;;;;;;;;6.50;6.50;;;;;21.61;44.80;102371.31;5056466;28;45549;-75
2021/06/13 06:43:44;;;;;;;;;7.50;7.50;;;;;21.59;43.78;102373.00;5056706;28;45362;-75
2021/06/13 06:46:10;;;;;;;;;12.00;9.75;;;;;21.61;43.89;102378.31;5055817;28;45409;-75
2021/06/13 06:48:36;;;;;;;;;9.25;7.75;;;;;21.60;43.73;102371.25;5056492;28;45381;-75
2021/06/13 06:51:01;;;;;;;;;7.00;7.00;;;;;21.62;43.97;102373.09;5056860;28;45347;-75
2021/06/13 06:53:27;;;;;;;;;7.75;7.75;;;;;21.63;43.08;102373.97;5055784;28;46434;-75
2021/06/13 06:55:53;;;;;;;;;6.00;6.00;;;;;21.64;43.11;102378.41;5054891;28;45513;-75
2021/06/13 06:58:18;;;;;;;;;7.75;6.00;;;;;21.66;43.37;102376.69;5055918;28;45388;-75
2021/06/13 07:00:44;;;;;;;;;6.00;6.00;;;;;21.67;43.48;102367.94;5056191;28;45303;-76
2021/06/13 07:03:12;;;;;;;;;7.25;7.25;;;;;21.64;42.84;102359.94;5055574;28;45383;-75
2021/06/13 07:05:39;;;;;;;;;19.50;16.00;;;;;21.74;42.59;102363.69;5037835;28;45800;-75
2021/06/13 07:08:05;;;;;;;;;24.00;22.25;;;;;21.78;42.51;102376.97;5056083;28;45348;-75
2021/06/13 07:10:31;;;;;;;;;21.25;20.25;;;;;21.84;42.41;102375.31;5037935;28;45347;-75
2021/06/13 07:12:57;;;;;;;;;9.50;8.00;;;;;21.85;42.56;102372.75;5037765;28;46602;-76
2021/06/13 07:15:23;;;;;;;;;11.75;9.00;;;;;21.87;42.41;102371.00;5054203;28;46029;-76
2021/06/13 07:17:49;;;;;;;;;5.00;3.75;;;;;21.89;42.13;102378.97;5055921;28;45400;-76
2021/06/13 07:20:16;;;;;;;;;10.50;8.50;;;;;21.93;41.92;102372.91;5055712;28;45573;-76
2021/06/13 07:22:42;;;;;;;;;7.25;6.50;;;;;21.99;41.91;102373.06;5055589;28;45964;-77
2021/06/13 07:25:09;;;;;;;;;6.25;6.25;;;;;22.06;41.49;102376.72;5055316;28;45743;-76
2021/06/13 07:27:36;;;;;;;;;8.75;8.50;;;;;22.13;41.51;102376.00;5037817;28;45388;-76
2021/06/13 07:30:05;;;;;;;;;7.75;6.75;;;;;22.19;41.51;102377.88;5054841;28;45461;-75
2021/06/13 07:32:31;;;;;;;;;8.25;8.25;;;;;22.20;41.04;102382.28;5055003;28;45500;-76
2021/06/13 07:34:56;;;;;;;;;7.50;7.00;;;;;22.22;41.58;102383.22;5055499;28;45379;-76
2021/06/13 07:37:22;;;;;;;;;35.50;29.50;;;;;22.24;41.42;102382.38;5055125;28;45379;-76
2021/06/13 07:39:47;;;;;;;;;8.75;8.75;;;;;22.26;41.26;102380.69;5055553;28;45355;-75
2021/06/13 07:42:13;;;;;;;;;9.00;7.00;;;;;22.29;41.08;102379.84;5054676;28;45335;-75
2021/06/13 07:44:39;;;;;;;;;8.00;7.50;;;;;22.20;41.00;102351.50;5055215;28;45328;-75
2021/06/13 07:47:05;;;;;;;;;8.25;7.75;;;;;22.31;41.02;102361.41;5055479;28;45339;-74
2021/06/13 07:49:32;;;;;;;;;7.75;7.75;;;;;22.37;40.71;102366.81;5055349;28;45463;-75
2021/06/13 07:51:58;;;;;;;;;6.75;6.75;;;;;22.41;40.60;102371.31;5054967;28;45527;-74
2021/06/13 07:54:25;;;;;;;;;9.75;7.00;;;;;22.46;41.35;102382.00;5054867;28;45676;-75
2021/06/13 07:56:51;;;;;;;;;7.75;6.00;;;;;22.47;40.69;102368.81;5081143;27;45490;-76
2021/06/13 07:59:16;;;;;;;;;5.75;5.50;;;;;22.50;41.26;102366.25;5074005;28;45425;-75
2021/06/13 08:01:42;;;;;;;;;8.00;7.50;;;;;22.53;40.37;102368.94;5075073;27;45803;-76
2021/06/13 08:04:08;;;;;;;;;8.00;8.00;;;;;22.55;40.80;102361.94;5075010;27;45326;-76
2021/06/13 08:06:34;;;;;;;;;7.00;7.00;;;;;22.61;40.26;102370.84;5075691;27;45412;-76
2021/06/13 08:08:59;;;;;;;;;6.50;5.25;;;;;22.57;40.35;102361.97;5094700;27;45493;-75
2021/06/13 08:11:26;;;;;;;;;8.50;8.50;;;;;22.66;40.38;102363.91;5078159;27;46121;-75
2021/06/13 08:13:53;;;;;;;;;7.00;6.00;;;;;22.69;39.80;102361.34;5078542;27;45806;-76
2021/06/13 08:16:18;;;;;;;;;10.00;7.00;;;;;22.68;39.71;102362.19;5078418;28;45429;-74
2021/06/13 08:18:44;;;;;;;;;12.50;11.75;;;;;22.73;40.07;102357.91;5078889;27;45285;-76
2021/06/13 08:21:10;;;;;;;;;4.50;4.50;;;;;22.77;39.69;102367.63;5078379;27;46251;-75
2021/06/13 08:23:35;;;;;;;;;7.75;7.00;;;;;22.82;39.47;102363.34;5078687;27;45314;-75
2021/06/13 08:26:01;;;;;;;;;6.25;4.75;;;;;22.86;39.28;102370.44;5078636;27;45296;-76
2021/06/13 08:28:27;;;;;;;;;6.75;6.75;;;;;22.88;39.51;102373.13;5078752;27;45552;-75
2021/06/13 08:30:53;;;;;;;;;6.00;5.00;;;;;22.92;39.76;102372.31;5078237;27;46227;-77
2021/06/13 08:33:19;;;;;;;;;8.25;7.00;;;;;22.90;39.54;102368.75;5078094;27;45181;-76
2021/06/13 08:35:44;;;;;;;;;6.75;6.00;;;;;22.96;38.96;102368.88;5077903;27;45451;-75
2021/06/13 08:38:10;;;;;;;;;9.75;9.75;;;;;22.95;38.65;102368.84;5077523;27;45337;-75
2021/06/13 08:40:37;;;;;;;;;11.75;10.25;;;;;22.94;38.54;102356.50;5077982;27;46176;-76
2021/06/13 08:43:03;;;;;;;;;8.75;6.75;;;;;23.01;38.59;102363.69;5078093;27;45419;-74
2021/06/13 08:45:32;;;;;;;;;9.00;9.00;;;;;23.02;38.67;102362.81;5077732;27;45442;-76
2021/06/13 08:48:00;;;;;;;;;8.00;6.75;;;;;22.98;38.74;102360.97;5078078;27;45547;-75
2021/06/13 08:50:27;;;;;;;;;7.25;5.00;;;;;23.00;38.54;102362.78;5077468;27;45365;-75
2021/06/13 08:52:53;;;;;;;;;7.25;7.25;;;;;23.02;38.72;102361.06;5076068;27;45874;-75
2021/06/13 08:55:21;;;;;;;;;10.50;8.00;;;;;23.06;39.11;102361.13;5074962;27;45347;-76
2021/06/13 08:57:48;;;;;;;;;7.00;6.25;;;;;23.06;38.61;102362.00;5057500;28;45528;-76
2021/06/13 09:00:18;;;;;;;;;7.25;4.75;;;;;23.10;38.99;102358.56;5038070;28;46809;-74
2021/06/13 09:02:44;;;;;;;;;8.50;7.50;;;;;23.14;38.97;102356.84;5038629;28;45397;-75
2021/06/13 09:05:13;;;;;;;;;8.75;7.75;;;;;23.11;39.22;102344.47;5038849;28;45327;-75
2021/06/13 09:07:58;;;;;;;;;39.50;34.50;;;;;23.17;39.22;102351.63;5057251;28;45554;-76
2021/06/13 09:10:29;;;;;;;;;9.50;8.75;;;;;23.21;39.52;102357.88;5056440;28;46295;-76
2021/06/13 09:13:16;;;;;;;;;11.00;10.25;;;;;23.26;39.29;102351.81;5056865;28;45912;-75
2021/06/13 09:15:49;;;;;;;;;7.50;7.50;;;;;23.28;39.20;102346.53;5039058;28;45415;-76
2021/06/13 09:18:37;;;;;;;;;9.00;8.75;;;;;23.21;39.48;102339.38;5056277;28;45403;-76
2021/06/13 09:21:13;;;;;;;;;10.00;9.50;;;;;23.26;38.97;102337.72;5055135;28;47458;-76
2021/06/13 09:23:41;;;;;;;;;7.00;7.00;;;;;23.22;38.96;102346.44;5056410;28;45444;-76
2021/06/13 09:26:06;;;;;;;;;9.00;7.00;;;;;23.33;39.06;102342.22;5056664;28;45298;-75
2021/06/13 09:28:43;;;;;;;;;7.50;7.25;;;;;23.42;39.26;102341.50;5055769;28;45960;-74
2021/06/13 09:31:21;;;;;;;;;6.50;6.50;;;;;23.45;38.64;102345.06;5056187;28;45989;-76
2021/06/13 09:33:52;;;;;;;;;7.00;7.00;;;;;23.49;38.62;102344.25;5056266;28;45317;-75
2021/06/13 09:36:24;;;;;;;;;7.00;7.00;;;;;23.49;38.51;102346.00;5056117;28;45423;-76
2021/06/13 09:38:55;;;;;;;;;9.50;7.00;;;;;23.49;38.93;102335.44;5057056;28;45250;-76
2021/06/13 09:41:23;;;;;;;;;5.00;5.00;;;;;23.55;38.78;102339.94;5038353;28;45419;-76
2021/06/13 09:43:50;;;;;;;;;7.25;7.25;;;;;23.60;38.55;102346.16;5038969;28;45846;-75
2021/06/13 09:46:18;;;;;;;;;5.75;5.75;;;;;23.59;38.43;102347.94;5056332;28;45293;-74
2021/06/13 09:48:51;;;;;;;;;7.75;7.00;;;;;23.62;38.82;102342.69;5056759;28;45328;-76
2021/06/13 09:51:24;;;;;;;;;7.00;7.00;;;;;23.61;38.42;102334.72;5056337;28;46582;-77
2021/06/13 09:53:51;;;;;;;;;7.50;7.50;;;;;23.69;38.46;102335.75;5056470;28;45812;-75
2021/06/13 09:56:21;;;;;;;;;7.50;7.50;;;;;23.71;38.68;102330.47;5056233;28;45339;-76
2021/06/13 09:58:53;;;;;;;;;8.25;8.25;;;;;23.74;38.38;102339.34;5039246;28;45600;-75
2021/06/13 10:01:22;;;;;;;;;8.50;8.25;;;;;23.76;38.38;102337.59;5037963;28;45789;-78
2021/06/13 10:03:48;;;;;;;;;5.00;5.00;;;;;23.78;38.20;102327.03;5056524;28;45375;-77
2021/06/13 10:06:17;;;;;;;;;7.00;6.25;;;;;23.83;38.13;102328.00;5038447;28;45316;-76
2021/06/13 10:08:43;;;;;;;;;7.00;6.00;;;;;23.91;37.85;102334.28;5038666;28;45542;-75
2021/06/13 10:11:09;;;;;;;;;13.00;12.50;;;;;23.91;38.06;102330.75;5056458;28;45313;-75
2021/06/13 10:14:04;;;;;;;;;12.75;12.50;;;;;23.91;37.54;102318.41;5055373;28;45403;-75
2021/06/13 10:16:32;;;;;;;;;9.00;8.00;;;;;24.02;37.90;102331.81;5059728;28;45374;-78
2021/06/13 10:19:11;;;;;;;;;8.25;8.25;;;;;24.05;37.81;102323.91;5055576;28;45584;-74
2021/06/13 10:21:49;;;;;;;;;7.25;7.25;;;;;24.11;37.96;102320.44;5056202;28;45372;-77
2021/06/13 10:24:20;;;;;;;;;8.00;8.00;;;;;24.16;37.48;102315.22;5058361;28;45312;-74
2021/06/13 10:27:00;;;;;;;;;7.00;7.00;;;;;24.00;37.62;102309.75;5056484;28;45238;-74
2021/06/13 10:29:30;;;;;;;;;8.00;8.00;;;;;24.06;37.19;102319.53;5055884;28;45395;-75
2021/06/13 10:31:58;;;;;;;;;8.00;8.00;;;;;24.15;37.60;102313.44;5055847;28;45303;-75
2021/06/13 10:34:27;;;;;;;;;7.50;7.00;;;;;24.21;37.29;102313.53;5055673;28;45422;-76
2021/06/13 10:36:56;;;;;;;;;7.75;7.75;;;;;24.29;37.34;102306.56;5055997;28;45257;-75
2021/06/13 10:39:27;;;;;;;;;9.75;8.00;;;;;24.26;37.08;102317.09;5055730;28;45475;-76
2021/06/13 10:41:56;;;;;;;;;6.00;6.00;;;;;24.36;36.58;102307.53;5056250;28;46061;-76
2021/06/13 10:44:27;;;;;;;;;6.75;6.75;;;;;24.45;36.85;102301.44;5037634;28;45703;-75
2021/06/13 10:46:57;;;;;;;;;7.25;7.00;;;;;24.46;36.91;102304.09;5056269;28;45426;-75
2021/06/13 10:49:35;;;;;;;;;7.00;7.00;;;;;24.49;36.23;102304.16;5056139;28;45383;-75
2021/06/13 10:52:06;;;;;;;;;7.00;5.00;;;;;24.50;36.51;102303.28;5055612;28;45983;-75
2021/06/13 10:54:37;;;;;;;;;8.75;7.75;;;;;24.53;35.78;102299.75;5055853;28;45274;-76
2021/06/13 10:57:05;;;;;;;;;9.00;8.00;;;;;24.56;36.06;102297.16;5068307;28;45327;-75
2021/06/13 10:59:33;;;;;;;;;11.25;8.25;;;;;24.53;35.50;102282.09;5076138;28;45333;-74
2021/06/13 11:02:10;;;;;;;;;8.00;8.00;;;;;24.64;35.94;102283.97;5075737;27;45374;-74
2021/06/13 11:04:50;;;;;;;;;6.00;6.00;;;;;24.69;35.39;102277.88;5076940;27;45878;-76
2021/06/13 11:07:28;;;;;;;;;7.50;7.50;;;;;24.76;35.77;102277.94;5077260;27;45389;-77
2021/06/13 11:10:13;;;;;;;;;8.00;6.75;;;;;24.77;35.57;102277.94;5076961;27;45404;-74
2021/06/13 11:12:55;;;;;;;;;10.00;7.75;;;;;24.79;35.47;102278.84;5076290;27;46268;-76
2021/06/13 11:15:39;;;;;;;;;9.75;9.50;;;;;24.84;36.33;102274.47;5076310;27;45237;-75
2021/06/13 11:18:15;;;;;;;;;6.75;6.75;;;;;24.88;34.89;102271.00;5076547;27;45302;-76
2021/06/13 11:20:54;;;;;;;;;6.75;5.50;;;;;24.93;34.72;102281.63;5074783;28;45283;-76
2021/06/13 11:23:23;;;;;;;;;7.00;6.25;;;;;24.97;34.51;102270.19;5075629;27;46090;-76
2021/06/13 11:25:57;;;;;;;;;6.50;5.50;;;;;25.00;35.02;102269.31;5076018;27;45771;-76
2021/06/13 11:28:29;;;;;;;;;7.00;6.50;;;;;25.06;34.27;102269.34;5075718;27;45333;-76
2021/06/13 11:30:58;;;;;;;;;7.00;7.00;;;;;25.08;34.39;102261.44;5076188;27;45405;-76